Rombauer, Missouri
Current Conditions -  °F | °C
As of 8:53 AM on Saturday 20 Dec 2014 (Local Time) from KPOF Reporting Station
Overcast Overcast  
Wind Chill: 33°   Ceiling: 6000
Heat Index: 37°   Visibility: 7mi
Dew Point: 31°   Wind: 5mph
Humidity: 79%   Direction: 80°E
Pressure: 30.28"   Gusts: NA
Location:  36.84°N, 90.28°W
Report Text: KPOF 201453Z AUTO 08004KT 7SM FEW027 OVC060 03/M01 A3028 RMK AO2 SLP258 T00281006 50000
Loading
Personal Weather Stations






























Interactive Weather Map New forecast layout! Learn more

10-Day Weather Forecast

Advertisements
Track Severe Weather on mobile